sensor_id;sensor_type;location;lat;lon;timestamp;P1;durP1;ratioP1;P2;durP2;ratioP2
62535;SDS011;63050;47.514;18.920;2024-01-11T00:00:38;14.20;;;8.40;;
62535;SDS011;63050;47.514;18.920;2024-01-11T00:05:40;22.00;;;8.30;;
62535;SDS011;63050;47.514;18.920;2024-01-11T00:10:43;12.40;;;7.70;;
62535;SDS011;63050;47.514;18.920;2024-01-11T00:15:45;13.90;;;8.20;;
62535;SDS011;63050;47.514;18.920;2024-01-11T00:20:46;10.90;;;7.70;;
62535;SDS011;63050;47.514;18.920;2024-01-11T00:25:47;14.10;;;8.40;;
62535;SDS011;63050;47.514;18.920;2024-01-11T00:30:49;17.90;;;8.10;;
62535;SDS011;63050;47.514;18.920;2024-01-11T00:35:51;15.80;;;9.30;;
62535;SDS011;63050;47.514;18.920;2024-01-11T00:40:52;10.80;;;7.60;;
62535;SDS011;63050;47.514;18.920;2024-01-11T00:45:54;18.40;;;7.90;;
62535;SDS011;63050;47.514;18.920;2024-01-11T00:50:56;10.70;;;6.60;;
62535;SDS011;63050;47.514;18.920;2024-01-11T00:55:57;14.90;;;7.60;;
62535;SDS011;63050;47.514;18.920;2024-01-11T01:01:00;13.10;;;6.30;;
62535;SDS011;63050;47.514;18.920;2024-01-11T01:06:02;12.50;;;6.80;;
62535;SDS011;63050;47.514;18.920;2024-01-11T01:11:04;14.60;;;8.20;;
62535;SDS011;63050;47.514;18.920;2024-01-11T01:16:05;12.40;;;6.00;;
62535;SDS011;63050;47.514;18.920;2024-01-11T01:21:07;11.50;;;7.30;;
62535;SDS011;63050;47.514;18.920;2024-01-11T01:26:09;14.10;;;6.90;;
62535;SDS011;63050;47.514;18.920;2024-01-11T01:31:10;17.10;;;7.90;;
62535;SDS011;63050;47.514;18.920;2024-01-11T01:36:13;11.80;;;6.30;;
62535;SDS011;63050;47.514;18.920;2024-01-11T01:41:15;16.20;;;7.30;;
62535;SDS011;63050;47.514;18.920;2024-01-11T01:46:22;14.30;;;6.00;;
62535;SDS011;63050;47.514;18.920;2024-01-11T01:51:25;14.30;;;6.00;;
62535;SDS011;63050;47.514;18.920;2024-01-11T01:56:28;7.40;;;4.40;;
62535;SDS011;63050;47.514;18.920;2024-01-11T02:01:30;9.60;;;4.80;;
62535;SDS011;63050;47.514;18.920;2024-01-11T02:06:32;8.60;;;4.80;;
62535;SDS011;63050;47.514;18.920;2024-01-11T02:11:35;7.80;;;3.60;;
62535;SDS011;63050;47.514;18.920;2024-01-11T02:16:36;8.10;;;4.30;;
62535;SDS011;63050;47.514;18.920;2024-01-11T02:21:38;8.90;;;5.10;;
62535;SDS011;63050;47.514;18.920;2024-01-11T02:26:59;6.60;;;4.20;;
62535;SDS011;63050;47.514;18.920;2024-01-11T02:32:05;5.30;;;4.20;;
62535;SDS011;63050;47.514;18.920;2024-01-11T02:37:08;7.10;;;4.40;;
62535;SDS011;63050;47.514;18.920;2024-01-11T02:42:10;5.00;;;2.80;;
62535;SDS011;63050;47.514;18.920;2024-01-11T02:47:12;7.20;;;3.10;;
62535;SDS011;63050;47.514;18.920;2024-01-11T02:52:14;6.40;;;3.40;;
62535;SDS011;63050;47.514;18.920;2024-01-11T02:57:16;7.90;;;3.20;;
62535;SDS011;63050;47.514;18.920;2024-01-11T03:02:18;3.50;;;3.10;;
62535;SDS011;63050;47.514;18.920;2024-01-11T03:07:19;5.30;;;2.90;;
62535;SDS011;63050;47.514;18.920;2024-01-11T03:12:22;5.10;;;2.90;;
62535;SDS011;63050;47.514;18.920;2024-01-11T03:17:27;5.40;;;2.70;;
62535;SDS011;63050;47.514;18.920;2024-01-11T03:22:28;6.50;;;3.10;;
62535;SDS011;63050;47.514;18.920;2024-01-11T03:27:30;6.70;;;3.60;;
62535;SDS011;63050;47.514;18.920;2024-01-11T03:32:32;5.60;;;3.30;;
62535;SDS011;63050;47.514;18.920;2024-01-11T03:37:35;7.20;;;3.60;;
62535;SDS011;63050;47.514;18.920;2024-01-11T03:42:38;4.40;;;2.10;;
62535;SDS011;63050;47.514;18.920;2024-01-11T03:47:39;5.20;;;3.10;;
62535;SDS011;63050;47.514;18.920;2024-01-11T03:52:43;5.70;;;2.60;;
62535;SDS011;63050;47.514;18.920;2024-01-11T03:57:45;4.50;;;3.10;;
62535;SDS011;63050;47.514;18.920;2024-01-11T04:02:48;4.20;;;2.30;;
62535;SDS011;63050;47.514;18.920;2024-01-11T04:07:49;6.90;;;3.00;;
62535;SDS011;63050;47.514;18.920;2024-01-11T04:12:50;3.60;;;2.10;;
62535;SDS011;63050;47.514;18.920;2024-01-11T04:17:57;5.20;;;2.70;;
62535;SDS011;63050;47.514;18.920;2024-01-11T04:22:58;6.80;;;2.60;;
62535;SDS011;63050;47.514;18.920;2024-01-11T04:28:00;3.80;;;2.40;;
62535;SDS011;63050;47.514;18.920;2024-01-11T04:33:02;5.20;;;2.80;;
62535;SDS011;63050;47.514;18.920;2024-01-11T04:38:05;4.80;;;3.00;;
62535;SDS011;63050;47.514;18.920;2024-01-11T04:43:07;5.30;;;2.30;;
62535;SDS011;63050;47.514;18.920;2024-01-11T04:48:09;2.80;;;2.20;;
62535;SDS011;63050;47.514;18.920;2024-01-11T04:53:11;4.70;;;2.80;;
62535;SDS011;63050;47.514;18.920;2024-01-11T04:58:13;4.00;;;3.10;;
62535;SDS011;63050;47.514;18.920;2024-01-11T05:03:14;3.80;;;2.20;;
62535;SDS011;63050;47.514;18.920;2024-01-11T05:08:16;5.20;;;2.70;;
62535;SDS011;63050;47.514;18.920;2024-01-11T05:13:18;7.50;;;3.70;;
62535;SDS011;63050;47.514;18.920;2024-01-11T05:18:19;5.80;;;3.70;;
62535;SDS011;63050;47.514;18.920;2024-01-11T05:23:20;4.30;;;2.90;;
62535;SDS011;63050;47.514;18.920;2024-01-11T05:28:22;5.70;;;3.50;;
62535;SDS011;63050;47.514;18.920;2024-01-11T05:33:23;13.10;;;7.70;;
62535;SDS011;63050;47.514;18.920;2024-01-11T05:38:25;5.00;;;3.50;;
62535;SDS011;63050;47.514;18.920;2024-01-11T05:43:26;3.70;;;2.20;;
62535;SDS011;63050;47.514;18.920;2024-01-11T05:48:27;4.80;;;2.90;;
62535;SDS011;63050;47.514;18.920;2024-01-11T05:53:29;6.20;;;3.40;;
62535;SDS011;63050;47.514;18.920;2024-01-11T05:58:31;5.70;;;3.10;;
62535;SDS011;63050;47.514;18.920;2024-01-11T06:03:32;10.20;;;3.80;;
62535;SDS011;63050;47.514;18.920;2024-01-11T06:08:35;9.40;;;4.60;;
62535;SDS011;63050;47.514;18.920;2024-01-11T06:13:36;8.10;;;3.70;;
62535;SDS011;63050;47.514;18.920;2024-01-11T06:18:40;7.90;;;4.50;;
62535;SDS011;63050;47.514;18.920;2024-01-11T06:23:45;8.70;;;4.40;;
62535;SDS011;63050;47.514;18.920;2024-01-11T06:28:46;12.00;;;4.90;;
62535;SDS011;63050;47.514;18.920;2024-01-11T06:33:48;8.80;;;4.70;;
62535;SDS011;63050;47.514;18.920;2024-01-11T06:38:50;16.00;;;5.20;;
62535;SDS011;63050;47.514;18.920;2024-01-11T06:43:52;10.90;;;4.40;;
62535;SDS011;63050;47.514;18.920;2024-01-11T06:48:53;7.80;;;3.90;;
62535;SDS011;63050;47.514;18.920;2024-01-11T06:53:55;8.40;;;5.30;;
62535;SDS011;63050;47.514;18.920;2024-01-11T06:58:56;9.20;;;5.00;;
62535;SDS011;63050;47.514;18.920;2024-01-11T07:03:58;8.60;;;4.30;;
62535;SDS011;63050;47.514;18.920;2024-01-11T07:08:59;12.20;;;6.10;;
62535;SDS011;63050;47.514;18.920;2024-01-11T07:14:01;10.80;;;5.70;;
62535;SDS011;63050;47.514;18.920;2024-01-11T07:19:05;10.10;;;5.60;;
62535;SDS011;63050;47.514;18.920;2024-01-11T07:24:06;24.00;;;6.80;;
62535;SDS011;63050;47.514;18.920;2024-01-11T07:29:08;19.90;;;7.50;;
62535;SDS011;63050;47.514;18.920;2024-01-11T07:34:09;17.50;;;8.80;;
62535;SDS011;63050;47.514;18.920;2024-01-11T07:39:12;16.50;;;10.00;;
62535;SDS011;63050;47.514;18.920;2024-01-11T07:44:13;33.90;;;12.10;;
62535;SDS011;63050;47.514;18.920;2024-01-11T07:49:15;19.80;;;11.90;;
62535;SDS011;63050;47.514;18.920;2024-01-11T07:54:16;19.50;;;11.30;;
62535;SDS011;63050;47.514;18.920;2024-01-11T07:59:18;30.60;;;13.60;;
62535;SDS011;63050;47.514;18.920;2024-01-11T08:04:19;22.00;;;12.60;;
62535;SDS011;63050;47.514;18.920;2024-01-11T08:09:21;29.80;;;16.10;;
62535;SDS011;63050;47.514;18.920;2024-01-11T08:14:23;35.50;;;17.40;;
62535;SDS011;63050;47.514;18.920;2024-01-11T08:19:25;34.80;;;16.60;;
62535;SDS011;63050;47.514;18.920;2024-01-11T08:24:26;41.30;;;17.40;;
62535;SDS011;63050;47.514;18.920;2024-01-11T08:29:27;27.50;;;15.50;;
62535;SDS011;63050;47.514;18.920;2024-01-11T08:34:29;24.20;;;11.30;;
62535;SDS011;63050;47.514;18.920;2024-01-11T08:39:31;18.20;;;9.00;;
62535;SDS011;63050;47.514;18.920;2024-01-11T08:44:35;19.60;;;10.90;;
62535;SDS011;63050;47.514;18.920;2024-01-11T08:49:38;21.40;;;8.60;;
62535;SDS011;63050;47.514;18.920;2024-01-11T08:54:40;9.90;;;6.00;;
62535;SDS011;63050;47.514;18.920;2024-01-11T08:59:41;12.80;;;5.80;;
62535;SDS011;63050;47.514;18.920;2024-01-11T09:04:42;8.60;;;4.70;;
62535;SDS011;63050;47.514;18.920;2024-01-11T09:09:44;8.90;;;5.30;;
62535;SDS011;63050;47.514;18.920;2024-01-11T09:14:47;10.50;;;6.30;;
62535;SDS011;63050;47.514;18.920;2024-01-11T09:19:48;10.20;;;6.40;;
62535;SDS011;63050;47.514;18.920;2024-01-11T09:24:51;10.70;;;6.60;;
62535;SDS011;63050;47.514;18.920;2024-01-11T09:29:53;17.10;;;9.80;;
62535;SDS011;63050;47.514;18.920;2024-01-11T09:34:54;16.50;;;9.50;;
62535;SDS011;63050;47.514;18.920;2024-01-11T09:39:56;14.20;;;8.70;;
62535;SDS011;63050;47.514;18.920;2024-01-11T09:44:58;13.80;;;8.20;;
62535;SDS011;63050;47.514;18.920;2024-01-11T09:49:59;13.20;;;8.00;;
62535;SDS011;63050;47.514;18.920;2024-01-11T09:55:01;17.50;;;10.60;;
62535;SDS011;63050;47.514;18.920;2024-01-11T10:00:03;19.60;;;10.40;;
62535;SDS011;63050;47.514;18.920;2024-01-11T10:05:08;17.10;;;11.20;;
62535;SDS011;63050;47.514;18.920;2024-01-11T10:10:09;26.20;;;12.20;;
62535;SDS011;63050;47.514;18.920;2024-01-11T10:15:11;18.10;;;11.30;;
62535;SDS011;63050;47.514;18.920;2024-01-11T10:20:14;14.90;;;9.50;;
62535;SDS011;63050;47.514;18.920;2024-01-11T10:25:16;19.20;;;11.80;;
62535;SDS011;63050;47.514;18.920;2024-01-11T10:30:18;18.90;;;10.50;;
62535;SDS011;63050;47.514;18.920;2024-01-11T10:35:23;14.00;;;9.70;;
62535;SDS011;63050;47.514;18.920;2024-01-11T10:40:24;17.00;;;11.70;;
62535;SDS011;63050;47.514;18.920;2024-01-11T10:45:27;19.40;;;12.80;;
62535;SDS011;63050;47.514;18.920;2024-01-11T10:50:29;22.60;;;12.20;;
62535;SDS011;63050;47.514;18.920;2024-01-11T10:55:32;20.40;;;14.20;;
62535;SDS011;63050;47.514;18.920;2024-01-11T11:00:35;23.70;;;16.00;;
62535;SDS011;63050;47.514;18.920;2024-01-11T11:05:37;22.10;;;13.00;;
62535;SDS011;63050;47.514;18.920;2024-01-11T11:10:38;19.80;;;13.30;;
62535;SDS011;63050;47.514;18.920;2024-01-11T11:15:40;21.50;;;13.50;;
62535;SDS011;63050;47.514;18.920;2024-01-11T11:20:47;22.30;;;14.90;;
62535;SDS011;63050;47.514;18.920;2024-01-11T11:25:49;20.50;;;14.60;;
62535;SDS011;63050;47.514;18.920;2024-01-11T11:30:52;18.30;;;11.50;;
62535;SDS011;63050;47.514;18.920;2024-01-11T11:35:54;17.80;;;12.70;;
62535;SDS011;63050;47.514;18.920;2024-01-11T11:40:58;20.60;;;12.50;;
62535;SDS011;63050;47.514;18.920;2024-01-11T11:46:00;18.70;;;12.90;;
62535;SDS011;63050;47.514;18.920;2024-01-11T11:56:13;17.50;;;11.90;;
62535;SDS011;63050;47.514;18.920;2024-01-11T12:01:17;17.70;;;12.20;;
62535;SDS011;63050;47.514;18.920;2024-01-11T12:06:20;21.20;;;11.70;;
62535;SDS011;63050;47.514;18.920;2024-01-11T12:11:24;19.50;;;11.60;;
62535;SDS011;63050;47.514;18.920;2024-01-11T12:16:26;19.40;;;13.10;;
62535;SDS011;63050;47.514;18.920;2024-01-11T12:21:28;19.50;;;13.60;;
62535;SDS011;63050;47.514;18.920;2024-01-11T12:26:30;19.70;;;13.30;;
62535;SDS011;63050;47.514;18.920;2024-01-11T12:31:31;20.60;;;13.50;;
62535;SDS011;63050;47.514;18.920;2024-01-11T12:36:33;15.60;;;11.90;;
62535;SDS011;63050;47.514;18.920;2024-01-11T12:41:35;19.50;;;13.40;;
62535;SDS011;63050;47.514;18.920;2024-01-11T12:46:37;18.40;;;13.00;;
62535;SDS011;63050;47.514;18.920;2024-01-11T12:51:39;16.30;;;11.70;;
62535;SDS011;63050;47.514;18.920;2024-01-11T12:56:41;17.60;;;12.40;;
62535;SDS011;63050;47.514;18.920;2024-01-11T13:01:43;18.60;;;12.60;;
62535;SDS011;63050;47.514;18.920;2024-01-11T13:06:44;18.40;;;12.10;;
62535;SDS011;63050;47.514;18.920;2024-01-11T13:11:45;17.90;;;12.50;;
62535;SDS011;63050;47.514;18.920;2024-01-11T13:16:46;16.30;;;11.70;;
62535;SDS011;63050;47.514;18.920;2024-01-11T13:21:49;20.80;;;13.20;;
62535;SDS011;63050;47.514;18.920;2024-01-11T13:26:50;18.70;;;12.40;;
62535;SDS011;63050;47.514;18.920;2024-01-11T13:31:51;18.20;;;12.40;;
62535;SDS011;63050;47.514;18.920;2024-01-11T13:36:53;19.20;;;13.90;;
62535;SDS011;63050;47.514;18.920;2024-01-11T13:41:54;17.00;;;12.30;;
62535;SDS011;63050;47.514;18.920;2024-01-11T13:46:56;18.30;;;13.10;;
62535;SDS011;63050;47.514;18.920;2024-01-11T13:51:58;20.10;;;12.80;;
62535;SDS011;63050;47.514;18.920;2024-01-11T13:56:59;20.80;;;13.90;;
62535;SDS011;63050;47.514;18.920;2024-01-11T14:02:01;28.40;;;13.20;;
62535;SDS011;63050;47.514;18.920;2024-01-11T14:07:02;18.70;;;13.10;;
62535;SDS011;63050;47.514;18.920;2024-01-11T14:12:04;19.40;;;12.40;;
62535;SDS011;63050;47.514;18.920;2024-01-11T14:17:06;18.60;;;13.30;;
62535;SDS011;63050;47.514;18.920;2024-01-11T14:22:10;22.50;;;13.30;;
62535;SDS011;63050;47.514;18.920;2024-01-11T14:27:11;20.00;;;13.20;;
62535;SDS011;63050;47.514;18.920;2024-01-11T14:32:15;18.40;;;12.90;;
62535;SDS011;63050;47.514;18.920;2024-01-11T14:37:19;18.30;;;12.20;;
62535;SDS011;63050;47.514;18.920;2024-01-11T14:42:21;18.60;;;12.30;;
62535;SDS011;63050;47.514;18.920;2024-01-11T14:47:22;18.30;;;11.70;;
62535;SDS011;63050;47.514;18.920;2024-01-11T14:52:24;18.80;;;11.90;;
62535;SDS011;63050;47.514;18.920;2024-01-11T14:57:26;19.30;;;12.20;;
62535;SDS011;63050;47.514;18.920;2024-01-11T15:02:28;21.20;;;13.70;;
62535;SDS011;63050;47.514;18.920;2024-01-11T15:07:29;19.90;;;13.00;;
62535;SDS011;63050;47.514;18.920;2024-01-11T15:12:30;19.40;;;12.10;;
62535;SDS011;63050;47.514;18.920;2024-01-11T15:17:32;22.30;;;12.60;;
62535;SDS011;63050;47.514;18.920;2024-01-11T15:22:34;18.00;;;11.90;;
62535;SDS011;63050;47.514;18.920;2024-01-11T15:27:35;21.40;;;13.90;;
62535;SDS011;63050;47.514;18.920;2024-01-11T15:32:37;18.40;;;11.60;;
62535;SDS011;63050;47.514;18.920;2024-01-11T15:37:40;19.30;;;11.50;;
62535;SDS011;63050;47.514;18.920;2024-01-11T15:42:42;20.10;;;11.60;;
62535;SDS011;63050;47.514;18.920;2024-01-11T15:47:44;20.10;;;12.60;;
62535;SDS011;63050;47.514;18.920;2024-01-11T15:52:45;23.30;;;12.90;;
62535;SDS011;63050;47.514;18.920;2024-01-11T15:57:47;22.10;;;13.30;;
62535;SDS011;63050;47.514;18.920;2024-01-11T16:02:49;21.50;;;14.10;;
62535;SDS011;63050;47.514;18.920;2024-01-11T16:07:52;22.30;;;13.00;;
62535;SDS011;63050;47.514;18.920;2024-01-11T16:12:53;22.90;;;13.60;;
62535;SDS011;63050;47.514;18.920;2024-01-11T16:17:55;16.60;;;11.00;;
62535;SDS011;63050;47.514;18.920;2024-01-11T16:22:56;17.00;;;10.30;;
62535;SDS011;63050;47.514;18.920;2024-01-11T16:27:58;18.60;;;10.30;;
62535;SDS011;63050;47.514;18.920;2024-01-11T16:33:00;21.10;;;10.60;;
62535;SDS011;63050;47.514;18.920;2024-01-11T16:38:03;17.00;;;11.30;;
62535;SDS011;63050;47.514;18.920;2024-01-11T16:43:06;20.40;;;13.10;;
62535;SDS011;63050;47.514;18.920;2024-01-11T16:48:11;20.00;;;11.80;;
62535;SDS011;63050;47.514;18.920;2024-01-11T16:53:17;20.10;;;12.10;;
62535;SDS011;63050;47.514;18.920;2024-01-11T16:58:20;20.70;;;13.60;;
62535;SDS011;63050;47.514;18.920;2024-01-11T17:03:22;19.20;;;11.70;;
62535;SDS011;63050;47.514;18.920;2024-01-11T17:08:23;21.70;;;13.30;;
62535;SDS011;63050;47.514;18.920;2024-01-11T17:13:25;21.70;;;13.70;;
62535;SDS011;63050;47.514;18.920;2024-01-11T17:18:27;25.60;;;15.90;;
62535;SDS011;63050;47.514;18.920;2024-01-11T17:23:29;26.60;;;15.70;;
62535;SDS011;63050;47.514;18.920;2024-01-11T17:28:30;31.80;;;16.30;;
62535;SDS011;63050;47.514;18.920;2024-01-11T17:33:33;29.40;;;16.90;;
62535;SDS011;63050;47.514;18.920;2024-01-11T17:38:34;25.60;;;14.70;;
62535;SDS011;63050;47.514;18.920;2024-01-11T17:43:37;27.20;;;15.60;;
62535;SDS011;63050;47.514;18.920;2024-01-11T17:48:38;25.70;;;15.70;;
62535;SDS011;63050;47.514;18.920;2024-01-11T17:53:40;26.50;;;15.20;;
62535;SDS011;63050;47.514;18.920;2024-01-11T17:58:43;40.20;;;24.40;;
62535;SDS011;63050;47.514;18.920;2024-01-11T18:03:45;35.20;;;21.10;;
62535;SDS011;63050;47.514;18.920;2024-01-11T18:08:48;20.80;;;12.30;;
62535;SDS011;63050;47.514;18.920;2024-01-11T18:14:14;21.60;;;11.60;;
62535;SDS011;63050;47.514;18.920;2024-01-11T18:19:17;23.60;;;13.20;;
62535;SDS011;63050;47.514;18.920;2024-01-11T18:24:19;25.40;;;14.70;;
62535;SDS011;63050;47.514;18.920;2024-01-11T18:29:21;22.90;;;13.50;;
62535;SDS011;63050;47.514;18.920;2024-01-11T18:34:23;22.10;;;13.40;;
62535;SDS011;63050;47.514;18.920;2024-01-11T18:39:25;19.60;;;11.50;;
62535;SDS011;63050;47.514;18.920;2024-01-11T18:44:27;23.70;;;12.80;;
62535;SDS011;63050;47.514;18.920;2024-01-11T18:49:29;28.50;;;13.80;;
62535;SDS011;63050;47.514;18.920;2024-01-11T18:54:31;24.00;;;13.70;;
62535;SDS011;63050;47.514;18.920;2024-01-11T18:59:33;22.10;;;14.10;;
62535;SDS011;63050;47.514;18.920;2024-01-11T19:04:35;25.10;;;14.40;;
62535;SDS011;63050;47.514;18.920;2024-01-11T19:09:37;22.30;;;14.30;;
62535;SDS011;63050;47.514;18.920;2024-01-11T19:14:38;19.30;;;12.70;;
62535;SDS011;63050;47.514;18.920;2024-01-11T19:19:41;27.00;;;13.90;;
62535;SDS011;63050;47.514;18.920;2024-01-11T19:24:42;22.00;;;12.70;;
62535;SDS011;63050;47.514;18.920;2024-01-11T19:29:44;21.50;;;13.80;;
62535;SDS011;63050;47.514;18.920;2024-01-11T19:34:46;19.90;;;11.30;;
62535;SDS011;63050;47.514;18.920;2024-01-11T19:39:47;21.20;;;12.60;;
62535;SDS011;63050;47.514;18.920;2024-01-11T19:44:48;21.30;;;13.00;;
62535;SDS011;63050;47.514;18.920;2024-01-11T19:49:50;19.50;;;11.80;;
62535;SDS011;63050;47.514;18.920;2024-01-11T19:54:51;19.10;;;12.70;;
62535;SDS011;63050;47.514;18.920;2024-01-11T19:59:53;22.00;;;12.70;;
62535;SDS011;63050;47.514;18.920;2024-01-11T20:04:55;24.30;;;13.20;;
62535;SDS011;63050;47.514;18.920;2024-01-11T20:09:56;23.90;;;12.50;;
62535;SDS011;63050;47.514;18.920;2024-01-11T20:14:57;23.70;;;13.40;;
62535;SDS011;63050;47.514;18.920;2024-01-11T20:19:59;18.90;;;10.80;;
62535;SDS011;63050;47.514;18.920;2024-01-11T20:25:00;18.60;;;10.40;;
62535;SDS011;63050;47.514;18.920;2024-01-11T20:30:02;18.70;;;10.40;;
62535;SDS011;63050;47.514;18.920;2024-01-11T20:35:04;18.40;;;11.20;;
62535;SDS011;63050;47.514;18.920;2024-01-11T20:40:09;20.40;;;10.50;;
62535;SDS011;63050;47.514;18.920;2024-01-11T20:45:11;19.30;;;10.90;;
62535;SDS011;63050;47.514;18.920;2024-01-11T20:50:13;16.60;;;10.90;;
62535;SDS011;63050;47.514;18.920;2024-01-11T20:55:14;18.30;;;10.10;;
62535;SDS011;63050;47.514;18.920;2024-01-11T21:00:17;16.10;;;9.70;;
62535;SDS011;63050;47.514;18.920;2024-01-11T21:05:19;19.60;;;9.70;;
62535;SDS011;63050;47.514;18.920;2024-01-11T21:10:20;16.60;;;10.20;;
62535;SDS011;63050;47.514;18.920;2024-01-11T21:15:25;18.50;;;11.50;;
62535;SDS011;63050;47.514;18.920;2024-01-11T21:20:26;24.60;;;12.30;;
62535;SDS011;63050;47.514;18.920;2024-01-11T21:25:28;21.20;;;11.30;;
62535;SDS011;63050;47.514;18.920;2024-01-11T21:30:29;18.20;;;10.90;;
62535;SDS011;63050;47.514;18.920;2024-01-11T21:35:31;19.00;;;11.40;;
62535;SDS011;63050;47.514;18.920;2024-01-11T21:40:33;17.90;;;10.50;;
62535;SDS011;63050;47.514;18.920;2024-01-11T21:45:34;23.00;;;12.90;;
62535;SDS011;63050;47.514;18.920;2024-01-11T21:50:37;22.90;;;11.90;;
62535;SDS011;63050;47.514;18.920;2024-01-11T21:55:39;14.80;;;8.70;;
62535;SDS011;63050;47.514;18.920;2024-01-11T22:00:40;20.80;;;12.10;;
62535;SDS011;63050;47.514;18.920;2024-01-11T22:05:42;16.30;;;10.10;;
62535;SDS011;63050;47.514;18.920;2024-01-11T22:10:44;20.70;;;11.20;;
62535;SDS011;63050;47.514;18.920;2024-01-11T22:15:45;18.50;;;11.00;;
62535;SDS011;63050;47.514;18.920;2024-01-11T22:20:46;21.50;;;11.50;;
62535;SDS011;63050;47.514;18.920;2024-01-11T22:25:47;19.90;;;11.60;;
62535;SDS011;63050;47.514;18.920;2024-01-11T22:30:50;17.90;;;11.20;;
62535;SDS011;63050;47.514;18.920;2024-01-11T22:35:51;20.60;;;12.50;;
62535;SDS011;63050;47.514;18.920;2024-01-11T22:40:52;25.10;;;14.00;;
62535;SDS011;63050;47.514;18.920;2024-01-11T22:45:54;22.40;;;12.60;;
62535;SDS011;63050;47.514;18.920;2024-01-11T22:50:56;20.90;;;12.10;;
62535;SDS011;63050;47.514;18.920;2024-01-11T22:55:57;18.60;;;12.30;;
62535;SDS011;63050;47.514;18.920;2024-01-11T23:00:58;20.80;;;11.60;;
62535;SDS011;63050;47.514;18.920;2024-01-11T23:06:00;23.30;;;12.80;;
62535;SDS011;63050;47.514;18.920;2024-01-11T23:11:01;21.40;;;12.80;;
62535;SDS011;63050;47.514;18.920;2024-01-11T23:16:04;23.40;;;15.00;;
62535;SDS011;63050;47.514;18.920;2024-01-11T23:21:06;24.20;;;13.60;;
62535;SDS011;63050;47.514;18.920;2024-01-11T23:26:08;20.20;;;11.60;;
62535;SDS011;63050;47.514;18.920;2024-01-11T23:31:11;22.10;;;13.20;;
62535;SDS011;63050;47.514;18.920;2024-01-11T23:36:12;22.10;;;14.10;;
62535;SDS011;63050;47.514;18.920;2024-01-11T23:41:14;20.50;;;13.10;;
62535;SDS011;63050;47.514;18.920;2024-01-11T23:46:16;20.20;;;12.30;;
62535;SDS011;63050;47.514;18.920;2024-01-11T23:51:17;23.30;;;12.00;;
62535;SDS011;63050;47.514;18.920;2024-01-11T23:56:18;21.60;;;12.10;;
